sensor_id;sensor_type;location;lat;lon;timestamp;pressure;altitude;pressure_sealevel;temperature;humidity
82858;BME280;72620;47.774;9.620;2023-12-22T00:00:00;95197.06;;;7.04;89.96
82858;BME280;72620;47.774;9.620;2023-12-22T00:02:28;95194.38;;;7.05;89.84
82858;BME280;72620;47.774;9.620;2023-12-22T00:04:55;95194.38;;;7.05;89.84
82858;BME280;72620;47.774;9.620;2023-12-22T00:07:22;95201.25;;;7.13;88.85
82858;BME280;72620;47.774;9.620;2023-12-22T00:09:50;95185.81;;;7.14;88.16
82858;BME280;72620;47.774;9.620;2023-12-22T00:12:17;95185.81;;;7.14;88.16
82858;BME280;72620;47.774;9.620;2023-12-22T00:14:44;95172.09;;;7.23;88.04
82858;BME280;72620;47.774;9.620;2023-12-22T00:17:11;95172.09;;;7.23;88.04
82858;BME280;72620;47.774;9.620;2023-12-22T00:19:39;95208.94;;;7.29;87.66
82858;BME280;72620;47.774;9.620;2023-12-22T00:22:06;95208.94;;;7.29;87.66
82858;BME280;72620;47.774;9.620;2023-12-22T00:24:33;95227.00;;;7.36;87.40
82858;BME280;72620;47.774;9.620;2023-12-22T00:27:00;95227.00;;;7.36;87.40
82858;BME280;72620;47.774;9.620;2023-12-22T00:29:27;95223.31;;;7.38;87.33
82858;BME280;72620;47.774;9.620;2023-12-22T00:31:55;95232.25;;;7.42;87.49
82858;BME280;72620;47.774;9.620;2023-12-22T00:34:22;95232.25;;;7.42;87.49
82858;BME280;72620;47.774;9.620;2023-12-22T00:36:49;95203.25;;;7.43;87.55
82858;BME280;72620;47.774;9.620;2023-12-22T00:39:16;95203.25;;;7.43;87.55
82858;BME280;72620;47.774;9.620;2023-12-22T00:41:44;95203.53;;;7.40;86.86
82858;BME280;72620;47.774;9.620;2023-12-22T00:44:11;95222.38;;;7.39;88.05
82858;BME280;72620;47.774;9.620;2023-12-22T00:46:38;95222.38;;;7.39;88.05
82858;BME280;72620;47.774;9.620;2023-12-22T00:49:07;95248.50;;;7.25;89.01
82858;BME280;72620;47.774;9.620;2023-12-22T00:51:35;95243.88;;;7.28;88.77
82858;BME280;72620;47.774;9.620;2023-12-22T00:54:02;95256.63;;;7.28;88.72
82858;BME280;72620;47.774;9.620;2023-12-22T00:56:29;95256.63;;;7.28;88.72
82858;BME280;72620;47.774;9.620;2023-12-22T00:58:57;95256.81;;;7.27;88.42
82858;BME280;72620;47.774;9.620;2023-12-22T01:01:36;95263.66;;;7.26;88.47
82858;BME280;72620;47.774;9.620;2023-12-22T01:04:03;95283.66;;;7.39;87.78
82858;BME280;72620;47.774;9.620;2023-12-22T01:06:31;95283.66;;;7.39;87.78
82858;BME280;72620;47.774;9.620;2023-12-22T01:08:58;95292.88;;;7.40;86.95
82858;BME280;72620;47.774;9.620;2023-12-22T01:11:25;95293.41;;;7.44;86.86
82858;BME280;72620;47.774;9.620;2023-12-22T01:13:52;95293.41;;;7.44;86.86
82858;BME280;72620;47.774;9.620;2023-12-22T01:16:19;95291.13;;;7.32;86.77
82858;BME280;72620;47.774;9.620;2023-12-22T01:18:49;95295.88;;;7.27;86.92
82858;BME280;72620;47.774;9.620;2023-12-22T01:21:17;95289.97;;;7.19;86.36
82858;BME280;72620;47.774;9.620;2023-12-22T01:23:44;95303.31;;;7.13;85.97
82858;BME280;72620;47.774;9.620;2023-12-22T01:26:12;95303.31;;;7.13;85.97
82858;BME280;72620;47.774;9.620;2023-12-22T01:28:39;95309.69;;;7.09;84.37
82858;BME280;72620;47.774;9.620;2023-12-22T01:31:06;95302.47;;;7.04;84.62
82858;BME280;72620;47.774;9.620;2023-12-22T01:33:33;95302.47;;;7.04;84.62
82858;BME280;72620;47.774;9.620;2023-12-22T01:36:00;95319.16;;;6.91;85.22
82858;BME280;72620;47.774;9.620;2023-12-22T01:38:27;95317.56;;;6.90;83.92
82858;BME280;72620;47.774;9.620;2023-12-22T01:40:54;95323.03;;;6.95;83.21
82858;BME280;72620;47.774;9.620;2023-12-22T01:43:21;95329.72;;;6.96;83.39
82858;BME280;72620;47.774;9.620;2023-12-22T01:45:53;95334.34;;;7.00;83.42
82858;BME280;72620;47.774;9.620;2023-12-22T01:48:28;95327.16;;;6.96;84.11
82858;BME280;72620;47.774;9.620;2023-12-22T01:50:58;95326.16;;;6.89;83.34
82858;BME280;72620;47.774;9.620;2023-12-22T01:53:30;95326.16;;;6.89;83.34
82858;BME280;72620;47.774;9.620;2023-12-22T01:56:03;95321.38;;;6.86;83.69
82858;BME280;72620;47.774;9.620;2023-12-22T01:58:34;95318.66;;;6.87;81.49
82858;BME280;72620;47.774;9.620;2023-12-22T02:01:04;95321.69;;;6.91;83.09
82858;BME280;72620;47.774;9.620;2023-12-22T02:03:32;95319.94;;;6.83;82.64
82858;BME280;72620;47.774;9.620;2023-12-22T02:05:59;95343.88;;;6.90;80.58
82858;BME280;72620;47.774;9.620;2023-12-22T02:08:27;95340.53;;;6.90;82.13
82858;BME280;72620;47.774;9.620;2023-12-22T02:10:59;95322.59;;;6.82;83.00
82858;BME280;72620;47.774;9.620;2023-12-22T02:13:27;95324.38;;;6.81;83.64
82858;BME280;72620;47.774;9.620;2023-12-22T02:16:04;95328.59;;;6.73;84.12
82858;BME280;72620;47.774;9.620;2023-12-22T02:18:43;95330.50;;;6.71;82.46
82858;BME280;72620;47.774;9.620;2023-12-22T02:21:14;95342.78;;;6.67;81.70
82858;BME280;72620;47.774;9.620;2023-12-22T02:23:41;95334.03;;;6.70;82.57
82858;BME280;72620;47.774;9.620;2023-12-22T02:26:22;95321.75;;;6.73;81.87
82858;BME280;72620;47.774;9.620;2023-12-22T02:28:57;95326.41;;;6.78;81.41
82858;BME280;72620;47.774;9.620;2023-12-22T02:31:39;95329.78;;;6.78;82.14
82858;BME280;72620;47.774;9.620;2023-12-22T02:34:15;95304.28;;;6.78;81.67
82858;BME280;72620;47.774;9.620;2023-12-22T02:36:48;95302.81;;;6.76;81.88
82858;BME280;72620;47.774;9.620;2023-12-22T02:39:19;95300.91;;;6.78;81.48
82858;BME280;72620;47.774;9.620;2023-12-22T02:41:47;95303.16;;;6.81;81.09
82858;BME280;72620;47.774;9.620;2023-12-22T02:44:15;95307.81;;;6.85;80.85
82858;BME280;72620;47.774;9.620;2023-12-22T02:46:43;95307.00;;;6.85;80.99
82858;BME280;72620;47.774;9.620;2023-12-22T02:49:10;95320.56;;;6.85;80.70
82858;BME280;72620;47.774;9.620;2023-12-22T02:51:40;95318.66;;;6.87;80.01
82858;BME280;72620;47.774;9.620;2023-12-22T02:54:07;95325.88;;;6.92;78.71
82858;BME280;72620;47.774;9.620;2023-12-22T02:56:34;95325.88;;;6.92;78.71
82858;BME280;72620;47.774;9.620;2023-12-22T02:59:01;95332.09;;;6.97;77.89
82858;BME280;72620;47.774;9.620;2023-12-22T03:01:28;95332.09;;;6.97;77.89
82858;BME280;72620;47.774;9.620;2023-12-22T03:03:56;95323.47;;;6.90;77.79
82858;BME280;72620;47.774;9.620;2023-12-22T03:06:23;95346.28;;;6.92;78.25
82858;BME280;72620;47.774;9.620;2023-12-22T03:08:50;95352.47;;;6.89;78.09
82858;BME280;72620;47.774;9.620;2023-12-22T03:11:17;95355.97;;;6.88;78.15
82858;BME280;72620;47.774;9.620;2023-12-22T03:13:44;95371.38;;;6.79;78.50
82858;BME280;72620;47.774;9.620;2023-12-22T03:16:12;95359.72;;;6.76;78.76
82858;BME280;72620;47.774;9.620;2023-12-22T03:18:39;95375.84;;;6.77;78.58
82858;BME280;72620;47.774;9.620;2023-12-22T03:21:06;95373.94;;;6.79;79.16
82858;BME280;72620;47.774;9.620;2023-12-22T03:23:33;95381.41;;;6.80;78.40
82858;BME280;72620;47.774;9.620;2023-12-22T03:26:03;95376.31;;;6.80;78.17
82858;BME280;72620;47.774;9.620;2023-12-22T03:28:30;95375.72;;;6.86;77.78
82858;BME280;72620;47.774;9.620;2023-12-22T03:31:00;95392.47;;;6.89;76.41
82858;BME280;72620;47.774;9.620;2023-12-22T03:33:27;95384.63;;;6.82;77.44
82858;BME280;72620;47.774;9.620;2023-12-22T03:35:54;95375.66;;;6.78;78.66
82858;BME280;72620;47.774;9.620;2023-12-22T03:38:21;95371.38;;;6.79;78.53
82858;BME280;72620;47.774;9.620;2023-12-22T03:40:48;95377.13;;;6.81;77.41
82858;BME280;72620;47.774;9.620;2023-12-22T03:43:15;95367.53;;;6.75;78.62
82858;BME280;72620;47.774;9.620;2023-12-22T03:45:42;95367.53;;;6.75;78.62
82858;BME280;72620;47.774;9.620;2023-12-22T03:48:10;95374.22;;;6.76;78.80
82858;BME280;72620;47.774;9.620;2023-12-22T03:50:37;95376.94;;;6.74;77.64
82858;BME280;72620;47.774;9.620;2023-12-22T03:53:04;95374.81;;;6.70;78.60
82858;BME280;72620;47.774;9.620;2023-12-22T03:55:31;95377.22;;;6.71;77.81
82858;BME280;72620;47.774;9.620;2023-12-22T03:57:58;95362.34;;;6.67;78.09
82858;BME280;72620;47.774;9.620;2023-12-22T04:00:26;95393.75;;;6.67;77.05
82858;BME280;72620;47.774;9.620;2023-12-22T04:02:53;95405.69;;;6.67;77.06
82858;BME280;72620;47.774;9.620;2023-12-22T04:05:23;95400.97;;;6.72;76.84
82858;BME280;72620;47.774;9.620;2023-12-22T04:07:50;95408.63;;;6.72;77.09
82858;BME280;72620;47.774;9.620;2023-12-22T04:10:18;95393.75;;;6.67;77.76
82858;BME280;72620;47.774;9.620;2023-12-22T04:12:45;95393.75;;;6.67;77.76
82858;BME280;72620;47.774;9.620;2023-12-22T04:15:13;95382.38;;;6.62;77.15
82858;BME280;72620;47.774;9.620;2023-12-22T04:17:40;95380.81;;;6.61;76.26
82858;BME280;72620;47.774;9.620;2023-12-22T04:20:07;95389.38;;;6.59;76.76
82858;BME280;72620;47.774;9.620;2023-12-22T04:22:35;95389.38;;;6.59;76.76
82858;BME280;72620;47.774;9.620;2023-12-22T04:25:02;95392.53;;;6.53;76.78
82858;BME280;72620;47.774;9.620;2023-12-22T04:27:29;95382.78;;;6.49;78.53
82858;BME280;72620;47.774;9.620;2023-12-22T04:29:56;95377.19;;;6.45;76.86
82858;BME280;72620;47.774;9.620;2023-12-22T04:32:23;95377.19;;;6.45;76.86
82858;BME280;72620;47.774;9.620;2023-12-22T04:34:50;95384.53;;;6.48;76.77
82858;BME280;72620;47.774;9.620;2023-12-22T04:37:18;95384.53;;;6.48;76.77
82858;BME280;72620;47.774;9.620;2023-12-22T04:39:45;95395.81;;;6.46;76.84
82858;BME280;72620;47.774;9.620;2023-12-22T04:42:12;95388.16;;;6.46;77.44
82858;BME280;72620;47.774;9.620;2023-12-22T04:44:39;95388.16;;;6.46;77.44
82858;BME280;72620;47.774;9.620;2023-12-22T04:47:06;95429.91;;;6.45;77.92
82858;BME280;72620;47.774;9.620;2023-12-22T04:49:33;95419.06;;;6.43;78.17
82858;BME280;72620;47.774;9.620;2023-12-22T04:52:01;95419.06;;;6.43;78.17
82858;BME280;72620;47.774;9.620;2023-12-22T04:54:28;95399.31;;;6.45;77.07
82858;BME280;72620;47.774;9.620;2023-12-22T04:56:55;95412.06;;;6.45;79.00
82858;BME280;72620;47.774;9.620;2023-12-22T04:59:22;95420.66;;;6.44;78.46
82858;BME280;72620;47.774;9.620;2023-12-22T05:01:49;95411.41;;;6.43;78.39
82858;BME280;72620;47.774;9.620;2023-12-22T05:04:16;95413.44;;;6.39;79.26
82858;BME280;72620;47.774;9.620;2023-12-22T05:06:44;95433.34;;;6.36;79.33
82858;BME280;72620;47.774;9.620;2023-12-22T05:09:12;95437.63;;;6.35;78.89
82858;BME280;72620;47.774;9.620;2023-12-22T05:11:39;95429.03;;;6.36;78.56
82858;BME280;72620;47.774;9.620;2023-12-22T05:14:06;95437.34;;;6.38;79.20
82858;BME280;72620;47.774;9.620;2023-12-22T05:16:33;95431.94;;;6.41;78.03
82858;BME280;72620;47.774;9.620;2023-12-22T05:19:01;95430.19;;;6.42;78.39
82858;BME280;72620;47.774;9.620;2023-12-22T05:21:28;95430.47;;;6.39;78.19
82858;BME280;72620;47.774;9.620;2023-12-22T05:23:55;95429.03;;;6.36;77.97
82858;BME280;72620;47.774;9.620;2023-12-22T05:26:22;95420.72;;;6.34;77.60
82858;BME280;72620;47.774;9.620;2023-12-22T05:28:51;95430.91;;;6.34;76.31
82858;BME280;72620;47.774;9.620;2023-12-22T05:31:18;95434.91;;;6.37;75.70
82858;BME280;72620;47.774;9.620;2023-12-22T05:33:46;95424.59;;;6.38;75.86
82858;BME280;72620;47.774;9.620;2023-12-22T05:36:13;95438.28;;;6.37;76.29
82858;BME280;72620;47.774;9.620;2023-12-22T05:38:40;95448.19;;;6.40;75.85
82858;BME280;72620;47.774;9.620;2023-12-22T05:41:07;95457.78;;;6.46;77.00
82858;BME280;72620;47.774;9.620;2023-12-22T05:43:35;95493.19;;;6.49;76.04
82858;BME280;72620;47.774;9.620;2023-12-22T05:46:02;95470.91;;;6.51;76.17
82858;BME280;72620;47.774;9.620;2023-12-22T05:48:30;95470.91;;;6.51;76.80
82858;BME280;72620;47.774;9.620;2023-12-22T05:50:57;95490.34;;;6.52;76.67
82858;BME280;72620;47.774;9.620;2023-12-22T05:53:24;95498.69;;;6.54;77.54
82858;BME280;72620;47.774;9.620;2023-12-22T05:55:52;95497.06;;;6.53;77.86
82858;BME280;72620;47.774;9.620;2023-12-22T05:58:19;95508.34;;;6.51;79.03
82858;BME280;72620;47.774;9.620;2023-12-22T06:00:46;95517.66;;;6.42;81.30
82858;BME280;72620;47.774;9.620;2023-12-22T06:03:14;95526.53;;;6.38;81.09
82858;BME280;72620;47.774;9.620;2023-12-22T06:05:41;95516.13;;;6.32;82.23
82858;BME280;72620;47.774;9.620;2023-12-22T06:08:08;95518.13;;;6.28;82.89
82858;BME280;72620;47.774;9.620;2023-12-22T06:10:36;95501.03;;;6.21;82.81
82858;BME280;72620;47.774;9.620;2023-12-22T06:13:03;95491.78;;;6.20;79.87
82858;BME280;72620;47.774;9.620;2023-12-22T06:15:32;95486.53;;;6.21;79.98
82858;BME280;72620;47.774;9.620;2023-12-22T06:17:59;95484.50;;;6.25;79.68
82858;BME280;72620;47.774;9.620;2023-12-22T06:20:26;95504.09;;;6.24;78.72
82858;BME280;72620;47.774;9.620;2023-12-22T06:22:54;95515.19;;;6.23;80.33
82858;BME280;72620;47.774;9.620;2023-12-22T06:25:21;95526.63;;;6.19;80.10
82858;BME280;72620;47.774;9.620;2023-12-22T06:27:48;95528.91;;;6.22;78.71
82858;BME280;72620;47.774;9.620;2023-12-22T06:30:15;95530.22;;;6.26;78.85
82858;BME280;72620;47.774;9.620;2023-12-22T06:32:43;95522.31;;;6.29;79.21
82858;BME280;72620;47.774;9.620;2023-12-22T06:35:10;95530.28;;;6.34;78.17
82858;BME280;72620;47.774;9.620;2023-12-22T06:37:42;95535.13;;;6.37;78.02
82858;BME280;72620;47.774;9.620;2023-12-22T06:40:09;95532.28;;;6.40;79.03
82858;BME280;72620;47.774;9.620;2023-12-22T06:42:37;95532.28;;;6.40;79.03
82858;BME280;72620;47.774;9.620;2023-12-22T06:45:05;95538.19;;;6.41;80.21
82858;BME280;72620;47.774;9.620;2023-12-22T06:47:33;95535.78;;;6.39;80.61
82858;BME280;72620;47.774;9.620;2023-12-22T06:50:00;95520.63;;;6.38;81.44
82858;BME280;72620;47.774;9.620;2023-12-22T06:52:28;95530.56;;;6.41;80.79
82858;BME280;72620;47.774;9.620;2023-12-22T06:54:57;95525.81;;;6.46;80.75
82858;BME280;72620;47.774;9.620;2023-12-22T06:57:24;95548.25;;;6.42;80.50
82858;BME280;72620;47.774;9.620;2023-12-22T06:59:53;95541.41;;;6.43;80.58
82858;BME280;72620;47.774;9.620;2023-12-22T07:02:20;95545.53;;;6.44;81.04
82858;BME280;72620;47.774;9.620;2023-12-22T07:07:36;95550.66;;;6.44;80.29
82858;BME280;72620;47.774;9.620;2023-12-22T07:10:04;95555.88;;;6.42;80.45
82858;BME280;72620;47.774;9.620;2023-12-22T07:12:31;95567.56;;;6.45;81.25
82858;BME280;72620;47.774;9.620;2023-12-22T07:14:58;95572.22;;;6.49;80.54
82858;BME280;72620;47.774;9.620;2023-12-22T07:17:26;95572.22;;;6.49;80.54
82858;BME280;72620;47.774;9.620;2023-12-22T07:19:53;95578.91;;;6.50;81.68
82858;BME280;72620;47.774;9.620;2023-12-22T07:22:25;95587.53;;;6.49;81.25
82858;BME280;72620;47.774;9.620;2023-12-22T07:24:52;95577.03;;;6.52;82.05
82858;BME280;72620;47.774;9.620;2023-12-22T07:27:20;95577.81;;;6.53;81.76
82858;BME280;72620;47.774;9.620;2023-12-22T07:29:47;95584.66;;;6.52;81.72
82858;BME280;72620;47.774;9.620;2023-12-22T07:32:14;95583.22;;;6.50;82.64
82858;BME280;72620;47.774;9.620;2023-12-22T07:34:41;95583.88;;;6.52;81.82
82858;BME280;72620;47.774;9.620;2023-12-22T07:37:11;95584.53;;;6.54;81.17
82858;BME280;72620;47.774;9.620;2023-12-22T07:39:38;95600.91;;;6.51;81.20
82858;BME280;72620;47.774;9.620;2023-12-22T07:42:05;95599.31;;;6.50;80.88
82858;BME280;72620;47.774;9.620;2023-12-22T07:44:33;95602.50;;;6.52;81.10
82858;BME280;72620;47.774;9.620;2023-12-22T07:47:00;95605.75;;;6.54;81.40
82858;BME280;72620;47.774;9.620;2023-12-22T07:49:29;95589.63;;;6.54;80.91
82858;BME280;72620;47.774;9.620;2023-12-22T07:51:58;95585.59;;;6.61;80.49
82858;BME280;72620;47.774;9.620;2023-12-22T07:54:28;95585.59;;;6.61;80.49
82858;BME280;72620;47.774;9.620;2023-12-22T07:56:55;95590.53;;;6.63;81.38
82858;BME280;72620;47.774;9.620;2023-12-22T07:59:22;95598.44;;;6.59;81.75
82858;BME280;72620;47.774;9.620;2023-12-22T08:01:57;95598.44;;;6.59;81.75
82858;BME280;72620;47.774;9.620;2023-12-22T08:04:24;95609.97;;;6.64;80.53
82858;BME280;72620;47.774;9.620;2023-12-22T08:06:51;95609.97;;;6.64;80.53
82858;BME280;72620;47.774;9.620;2023-12-22T08:09:19;95593.47;;;6.68;79.65
82858;BME280;72620;47.774;9.620;2023-12-22T08:11:46;95590.59;;;6.71;79.56
82858;BME280;72620;47.774;9.620;2023-12-22T08:14:14;95584.56;;;6.72;79.39
82858;BME280;72620;47.774;9.620;2023-12-22T08:16:41;95587.63;;;6.75;78.75
82858;BME280;72620;47.774;9.620;2023-12-22T08:19:10;95593.03;;;6.72;78.70
82858;BME280;72620;47.774;9.620;2023-12-22T08:21:37;95594.06;;;6.79;78.43
82858;BME280;72620;47.774;9.620;2023-12-22T08:24:12;95594.06;;;6.79;78.43
82858;BME280;72620;47.774;9.620;2023-12-22T08:26:48;95593.25;;;6.79;78.60
82858;BME280;72620;47.774;9.620;2023-12-22T08:29:18;95594.56;;;6.83;77.54
82858;BME280;72620;47.774;9.620;2023-12-22T08:31:46;95600.59;;;6.82;77.40
82858;BME280;72620;47.774;9.620;2023-12-22T08:34:14;95606.34;;;6.84;77.62
82858;BME280;72620;47.774;9.620;2023-12-22T08:36:41;95606.34;;;6.84;77.62
82858;BME280;72620;47.774;9.620;2023-12-22T08:39:10;95608.84;;;6.93;76.85
82858;BME280;72620;47.774;9.620;2023-12-22T08:41:38;95617.31;;;6.94;77.66
82858;BME280;72620;47.774;9.620;2023-12-22T08:44:06;95606.06;;;6.87;77.59
82858;BME280;72620;47.774;9.620;2023-12-22T08:46:34;95598.81;;;6.92;77.82
82858;BME280;72620;47.774;9.620;2023-12-22T08:49:02;95606.59;;;6.90;77.72
82858;BME280;72620;47.774;9.620;2023-12-22T08:51:30;95624.69;;;6.97;77.88
82858;BME280;72620;47.774;9.620;2023-12-22T08:53:58;95621.84;;;7.00;77.63
82858;BME280;72620;47.774;9.620;2023-12-22T08:56:26;95626.66;;;7.03;78.16
82858;BME280;72620;47.774;9.620;2023-12-22T08:58:54;95614.28;;;7.08;77.43
82858;BME280;72620;47.774;9.620;2023-12-22T09:01:22;95627.03;;;7.08;77.96
82858;BME280;72620;47.774;9.620;2023-12-22T09:03:49;95627.03;;;7.08;77.96
82858;BME280;72620;47.774;9.620;2023-12-22T09:06:21;95619.88;;;7.11;77.64
82858;BME280;72620;47.774;9.620;2023-12-22T09:08:49;95624.53;;;7.16;78.04
82858;BME280;72620;47.774;9.620;2023-12-22T09:11:19;95629.38;;;7.19;79.53
82858;BME280;72620;47.774;9.620;2023-12-22T09:13:46;95629.38;;;7.19;79.53
82858;BME280;72620;47.774;9.620;2023-12-22T09:16:21;95635.19;;;7.29;77.29
82858;BME280;72620;47.774;9.620;2023-12-22T09:18:49;95623.06;;;7.31;77.20
82858;BME280;72620;47.774;9.620;2023-12-22T09:21:17;95629.00;;;7.31;77.33
82858;BME280;72620;47.774;9.620;2023-12-22T09:23:45;95638.72;;;7.28;77.54
82858;BME280;72620;47.774;9.620;2023-12-22T09:26:14;95645.34;;;7.21;77.06
82858;BME280;72620;47.774;9.620;2023-12-22T09:28:42;95650.16;;;7.24;77.11
82858;BME280;72620;47.774;9.620;2023-12-22T09:31:10;95653.66;;;7.23;77.43
82858;BME280;72620;47.774;9.620;2023-12-22T09:33:37;95628.84;;;7.33;76.75
82858;BME280;72620;47.774;9.620;2023-12-22T09:36:05;95628.84;;;7.33;76.75
82858;BME280;72620;47.774;9.620;2023-12-22T09:38:32;95632.78;;;7.27;77.57
82858;BME280;72620;47.774;9.620;2023-12-22T09:41:00;95640.28;;;7.29;76.92
82858;BME280;72620;47.774;9.620;2023-12-22T09:43:28;95654.53;;;7.31;76.62
82858;BME280;72620;47.774;9.620;2023-12-22T09:45:57;95642.78;;;7.39;76.57
82858;BME280;72620;47.774;9.620;2023-12-22T09:48:26;95643.72;;;7.38;77.48
82858;BME280;72620;47.774;9.620;2023-12-22T09:50:55;95639.78;;;7.43;76.41
82858;BME280;72620;47.774;9.620;2023-12-22T09:53:24;95652.84;;;7.40;75.87
82858;BME280;72620;47.774;9.620;2023-12-22T09:55:53;95657.50;;;7.45;76.45
82858;BME280;72620;47.774;9.620;2023-12-22T09:58:22;95640.28;;;7.47;75.99
82858;BME280;72620;47.774;9.620;2023-12-22T10:00:50;95642.56;;;7.50;76.36
82858;BME280;72620;47.774;9.620;2023-12-22T10:03:20;95642.56;;;7.50;75.59
82858;BME280;72620;47.774;9.620;2023-12-22T10:05:51;95637.81;;;7.55;77.53
82858;BME280;72620;47.774;9.620;2023-12-22T10:08:18;95643.72;;;7.55;76.05
82858;BME280;72620;47.774;9.620;2023-12-22T10:10:47;95630.06;;;7.64;76.38
82858;BME280;72620;47.774;9.620;2023-12-22T10:13:14;95615.41;;;7.66;76.61
82858;BME280;72620;47.774;9.620;2023-12-22T10:15:44;95618.41;;;7.62;77.11
82858;BME280;72620;47.774;9.620;2023-12-22T10:18:13;95614.22;;;7.61;76.91
82858;BME280;72620;47.774;9.620;2023-12-22T10:20:42;95622.72;;;7.61;76.51
82858;BME280;72620;47.774;9.620;2023-12-22T10:23:09;95621.59;;;7.64;77.81
82858;BME280;72620;47.774;9.620;2023-12-22T10:25:40;95621.66;;;7.72;76.43
82858;BME280;72620;47.774;9.620;2023-12-22T10:28:10;95618.28;;;7.71;76.39
82858;BME280;72620;47.774;9.620;2023-12-22T10:30:40;95616.63;;;7.62;76.47
82858;BME280;72620;47.774;9.620;2023-12-22T10:33:07;95612.03;;;7.66;76.05
82858;BME280;72620;47.774;9.620;2023-12-22T10:35:34;95609.78;;;7.63;76.46
82858;BME280;72620;47.774;9.620;2023-12-22T10:38:01;95614.38;;;7.59;76.13
82858;BME280;72620;47.774;9.620;2023-12-22T10:40:30;95619.50;;;7.59;76.12
82858;BME280;72620;47.774;9.620;2023-12-22T10:42:58;95634.66;;;7.61;76.05
82858;BME280;72620;47.774;9.620;2023-12-22T10:45:27;95631.63;;;7.57;75.95
82858;BME280;72620;47.774;9.620;2023-12-22T10:47:57;95629.84;;;7.58;76.53
82858;BME280;72620;47.774;9.620;2023-12-22T10:50:25;95628.69;;;7.52;77.05
82858;BME280;72620;47.774;9.620;2023-12-22T10:52:52;95636.94;;;7.46;76.03
82858;BME280;72620;47.774;9.620;2023-12-22T10:55:20;95627.72;;;7.53;75.99
82858;BME280;72620;47.774;9.620;2023-12-22T10:57:47;95620.66;;;7.47;76.22
82858;BME280;72620;47.774;9.620;2023-12-22T11:00:16;95620.66;;;7.47;76.22
82858;BME280;72620;47.774;9.620;2023-12-22T11:02:47;95611.75;;;7.51;76.75
82858;BME280;72620;47.774;9.620;2023-12-22T11:05:18;95605.44;;;7.55;76.09
82858;BME280;72620;47.774;9.620;2023-12-22T11:07:49;95605.13;;;7.58;75.73
82858;BME280;72620;47.774;9.620;2023-12-22T11:10:20;95607.03;;;7.56;76.52
82858;BME280;72620;47.774;9.620;2023-12-22T11:12:48;95607.03;;;7.56;76.52
82858;BME280;72620;47.774;9.620;2023-12-22T11:15:18;95585.34;;;7.60;76.53
82858;BME280;72620;47.774;9.620;2023-12-22T11:17:48;95581.84;;;7.61;76.58
82858;BME280;72620;47.774;9.620;2023-12-22T11:20:20;95594.63;;;7.61;76.00
82858;BME280;72620;47.774;9.620;2023-12-22T11:22:51;95594.31;;;7.64;76.01
82858;BME280;72620;47.774;9.620;2023-12-22T11:25:21;95581.84;;;7.61;76.03
82858;BME280;72620;47.774;9.620;2023-12-22T11:27:52;95577.03;;;7.58;76.79
82858;BME280;72620;47.774;9.620;2023-12-22T11:30:22;95567.78;;;7.57;77.18
82858;BME280;72620;47.774;9.620;2023-12-22T11:32:53;95563.91;;;7.53;77.65
82858;BME280;72620;47.774;9.620;2023-12-22T11:35:23;95571.22;;;7.48;77.66
82858;BME280;72620;47.774;9.620;2023-12-22T11:38:00;95560.34;;;7.46;77.43
82858;BME280;72620;47.774;9.620;2023-12-22T11:40:29;95573.41;;;7.43;78.44
82858;BME280;72620;47.774;9.620;2023-12-22T11:42:59;95558.53;;;7.39;79.19
82858;BME280;72620;47.774;9.620;2023-12-22T11:45:30;95555.97;;;7.39;78.62
82858;BME280;72620;47.774;9.620;2023-12-22T11:48:10;95563.94;;;7.36;79.83
82858;BME280;72620;47.774;9.620;2023-12-22T11:50:38;95549.78;;;7.41;79.14
82858;BME280;72620;47.774;9.620;2023-12-22T11:53:25;95547.59;;;7.46;79.55
82858;BME280;72620;47.774;9.620;2023-12-22T11:58:48;95532.06;;;7.40;81.46
82858;BME280;72620;47.774;9.620;2023-12-22T12:01:21;95525.19;;;7.40;80.85
82858;BME280;72620;47.774;9.620;2023-12-22T12:03:59;95527.63;;;7.42;80.96
82858;BME280;72620;47.774;9.620;2023-12-22T12:06:33;95518.69;;;7.46;80.64
82858;BME280;72620;47.774;9.620;2023-12-22T12:09:05;95515.34;;;7.45;80.70
82858;BME280;72620;47.774;9.620;2023-12-22T12:14:32;95522.06;;;7.46;79.44
82858;BME280;72620;47.774;9.620;2023-12-22T12:17:07;95505.13;;;7.45;79.83
82858;BME280;72620;47.774;9.620;2023-12-22T12:19:37;95506.75;;;7.46;80.75
82858;BME280;72620;47.774;9.620;2023-12-22T12:22:06;95493.63;;;7.41;80.28
82858;BME280;72620;47.774;9.620;2023-12-22T12:24:36;95500.31;;;7.42;81.39
82858;BME280;72620;47.774;9.620;2023-12-22T12:27:05;95511.13;;;7.36;81.03
82858;BME280;72620;47.774;9.620;2023-12-22T12:29:32;95505.66;;;7.31;81.52
82858;BME280;72620;47.774;9.620;2023-12-22T12:32:04;95497.50;;;7.27;82.35
82858;BME280;72620;47.774;9.620;2023-12-22T12:34:35;95502.06;;;7.16;82.90
82858;BME280;72620;47.774;9.620;2023-12-22T12:37:04;95502.13;;;7.06;83.41
82858;BME280;72620;47.774;9.620;2023-12-22T12:39:34;95506.38;;;6.98;84.55
82858;BME280;72620;47.774;9.620;2023-12-22T12:42:07;95517.81;;;6.94;85.58
82858;BME280;72620;47.774;9.620;2023-12-22T12:44:37;95518.75;;;6.93;85.60
82858;BME280;72620;47.774;9.620;2023-12-22T12:47:14;95514.69;;;6.82;85.67
82858;BME280;72620;47.774;9.620;2023-12-22T12:49:43;95520.53;;;6.75;86.65
82858;BME280;72620;47.774;9.620;2023-12-22T12:52:13;95510.19;;;6.76;86.48
82858;BME280;72620;47.774;9.620;2023-12-22T12:54:42;95509.97;;;6.70;86.88
82858;BME280;72620;47.774;9.620;2023-12-22T12:57:14;95496.03;;;6.64;87.28
82858;BME280;72620;47.774;9.620;2023-12-22T12:59:46;95496.78;;;6.56;87.05
82858;BME280;72620;47.774;9.620;2023-12-22T13:02:17;95486.72;;;6.55;87.26
82858;BME280;72620;47.774;9.620;2023-12-22T13:04:46;95497.66;;;6.47;88.16
82858;BME280;72620;47.774;9.620;2023-12-22T13:07:14;95499.97;;;6.41;88.52
82858;BME280;72620;47.774;9.620;2023-12-22T13:09:50;95492.31;;;6.41;88.04
82858;BME280;72620;47.774;9.620;2023-12-22T13:12:18;95506.28;;;6.37;88.05
82858;BME280;72620;47.774;9.620;2023-12-22T13:14:45;95493.69;;;6.35;88.90
82858;BME280;72620;47.774;9.620;2023-12-22T13:17:12;95487.56;;;6.28;88.78
82858;BME280;72620;47.774;9.620;2023-12-22T13:19:40;95495.84;;;6.30;88.89
82858;BME280;72620;47.774;9.620;2023-12-22T13:22:07;95499.06;;;6.32;89.07
82858;BME280;72620;47.774;9.620;2023-12-22T13:24:35;95493.97;;;6.32;89.65